Terminal Aerodrome Forecast
Issued by NWS

Home | Current Version | Previous Version | Text Only | Print | Product List | Glossary On
Versions: 1 2 3 4 5 6 7 8 9 10 11 12 13 14 15 16 17 18 19 20 21 22 23 24 25 26 27 28 29
000
FTUS41 KCTP 010330 AAA
TAFUNV
TAF AMD
KUNV 010330Z 0104/0124 VRB03KT P6SM -SHRA BKN050 OVC120
     FM010700 29002KT P6SM OVC025
     FM010900 29002KT 4SM BR OVC012
     FM011400 31006KT 6SM HZ OVC025
     FM011600 35010KT P6SM BKN040=

USA.gov is the U.S. government's official web portal to all federal, state and local government web resources and services.